A- A+

最近的 Aksu机场的Oban机场的Tarbes-Lourdes-Pyrénées机场的Goulburn机场的

机场信息,从地图到酒店再到航空信息。 以及飞行员的航空天气,METAR(METeorological Aerodrome Report,航空气象条件观测信息)和TAF(终端机场预报:航空气象条件短期预报信息)。 以及其他资源,例如 VAC(Visual Approach Chart)来准备航班.

机场Garissa 在 Garissa (肯尼亚)

机场Garissa 它位于附近 Garissa, 和 Garissa 在 1km, Mwingi 在 184km, Maua 在 205km, Kitui 在 208km, Nginda 在 212km, Chuka 在 223km, Meru 在 229km, Witu 在 231km, Embu 在 244km, Lamu 在 245km, Isiolo 在 247km, Kipini 在 249km,

→ 也可以看看 最北端的机场 肯尼亚最南端的机场 肯尼亚

→ 也可以看看 机场 在 肯尼亚

的酒店 机场Garissa

Booking.com

的鸟瞰图 机场Garissa

机场代码

海拔 : 145 m = 476ft

→ 也可以看看 最高的机场 肯尼亚最低的机场 肯尼亚

→ 也可以看看 拥有最长跑道的机场 肯尼亚

到哪里 机场Garissa HKGA GAS

预订飞机旅行

的天气 : 多云 在 Garissa

ciel couvert
25°C
24 ↗ 34°C

的风 23km/h
阵阵 45km/h

高温警报 34°CGarissa

星期一 : 高温警报 34°CGarissa

机场Garissa HKGA GAS航空天气

METAR 机场Garissa HKGA GAS机场的

HKGA 141800Z 16008KT SKC 31/20 Q1011

机场Garissa HKGA GAS机场METAR解码

HKGA机场发行的METAR日期2024年5月15日星期三至18:00 GMT, 警告:此METAR已过期, 已于 11 天 270 小时 -15834 分钟.

可见度为 = .

温度为 31°C = 88°F, 露点是 20°C = 68°F 。 这相当于52%的相对湿度。.

QNH是1011hPa = 29.85inHg

的风 15km/h = 8kt, 风向为 160°.

没有云.

没有TAF 为了 机场Garissa

但航空气象预报可用于机场 Malindi机场的 (HKML) 在 312km

NOTAM 为了 机场Garissa

参见航行通告

机场Garissa 在 Garissa (肯尼亚)附近

最近的机场机场Garissa 在 Garissa (肯尼亚)

→ 也可以看看 的前机场 肯尼亚

数据源